Time;durP1;ratioP1;P1;durP2;ratioP2;P2;SDS_P1;SDS_P2;PMS_P1;PMS_P2;Temp;Humidity;BMP_temperature;BMP_pressure;BME280_temperature;BME280_humidity;BME280_pressure;Samples;Min_cycle;Max_cycle;Signal;HPM_P1;HPM_P2
2021/01/09 00:00:56;;;;;;;20.17;12.43;;;1.40;99.90;;;;;;5034331;28;20198;-80
2021/01/09 00:03:22;;;;;;;21.60;12.30;;;1.40;99.90;;;;;;5035093;28;20178;-82
2021/01/09 00:05:50;;;;;;;22.77;13.00;;;1.40;99.90;;;;;;5035451;28;20202;-79
2021/01/09 00:08:16;;;;;;;19.43;12.03;;;1.40;99.90;;;;;;5034582;28;20178;-79
2021/01/09 00:10:41;;;;;;;19.93;12.17;;;1.40;99.90;;;;;;5035916;28;20171;-78
2021/01/09 00:13:07;;;;;;;22.27;13.60;;;1.40;99.90;;;;;;5035657;28;20189;-80
2021/01/09 00:15:32;;;;;;;20.27;12.80;;;1.30;99.90;;;;;;5035692;28;20260;-79
2021/01/09 00:17:58;;;;;;;21.83;12.57;;;1.30;99.90;;;;;;5035126;28;20171;-79
2021/01/09 00:20:24;;;;;;;22.37;12.80;;;1.30;99.90;;;;;;5035729;28;20185;-80
2021/01/09 00:22:49;;;;;;;21.40;12.37;;;1.40;99.90;;;;;;5035066;28;20217;-78
2021/01/09 00:25:16;;;;;;;21.23;12.83;;;1.30;99.90;;;;;;5035666;28;20175;-79
2021/01/09 00:27:42;;;;;;;19.60;12.17;;;1.30;99.90;;;;;;5051920;28;20178;-79
2021/01/09 00:30:08;;;;;;;19.40;12.17;;;1.40;99.90;;;;;;5034939;28;20253;-79
2021/01/09 00:32:33;;;;;;;20.03;12.63;;;1.30;99.90;;;;;;5034691;28;20557;-79
2021/01/09 00:34:59;;;;;;;20.03;12.07;;;1.30;99.90;;;;;;5034431;28;20190;-78
2021/01/09 00:37:28;;;;;;;20.83;12.57;;;1.40;99.90;;;;;;5035259;28;20224;-80
2021/01/09 00:39:54;;;;;;;20.50;11.77;;;1.40;99.90;;;;;;5017940;28;20209;-79
2021/01/09 00:42:19;;;;;;;18.97;12.30;;;1.40;99.90;;;;;;5034777;28;20219;-78
2021/01/09 00:44:45;;;;;;;19.00;12.17;;;1.40;99.90;;;;;;5017668;28;20634;-81
2021/01/09 00:47:10;;;;;;;19.70;11.87;;;1.40;99.90;;;;;;5033653;28;20214;-79
2021/01/09 00:49:36;;;;;;;21.33;12.33;;;1.50;99.90;;;;;;5033543;28;20241;-78
2021/01/09 00:52:01;;;;;;;21.20;12.53;;;1.50;99.90;;;;;;5000427;28;20210;-80
2021/01/09 00:54:27;;;;;;;19.60;12.00;;;1.50;99.90;;;;;;5016804;28;20183;-79
2021/01/09 00:56:53;;;;;;;18.77;11.60;;;1.50;99.90;;;;;;5016816;28;20203;-79
2021/01/09 00:59:19;;;;;;;18.13;11.40;;;1.50;99.90;;;;;;5017251;28;20350;-79
2021/01/09 01:01:45;;;;;;;22.13;12.20;;;1.50;99.90;;;;;;5000423;28;20606;-78
2021/01/09 01:04:10;;;;;;;19.63;11.93;;;1.40;99.90;;;;;;5000402;28;20179;-78
2021/01/09 01:06:36;;;;;;;15.83;10.60;;;1.40;99.90;;;;;;5016628;28;20202;-79
2021/01/09 01:09:02;;;;;;;17.20;11.23;;;1.50;99.90;;;;;;5017367;28;20229;-78
2021/01/09 01:11:28;;;;;;;16.80;11.13;;;1.40;99.90;;;;;;5000281;28;20182;-77
2021/01/09 01:13:54;;;;;;;19.77;11.30;;;1.40;99.90;;;;;;5016940;28;20752;-79
2021/01/09 01:16:20;;;;;;;19.27;10.80;;;1.40;99.90;;;;;;5000544;28;20209;-79
2021/01/09 01:18:46;;;;;;;17.73;11.67;;;1.40;99.90;;;;;;5001126;28;20186;-79
2021/01/09 01:21:11;;;;;;;19.23;11.80;;;1.40;99.90;;;;;;5033627;28;20201;-78
2021/01/09 01:23:37;;;;;;;19.30;11.50;;;1.40;99.90;;;;;;5016751;28;20186;-78
2021/01/09 01:26:03;;;;;;;22.10;12.23;;;1.40;99.90;;;;;;5032816;28;20210;-80
2021/01/09 01:28:28;;;;;;;21.30;11.47;;;1.40;99.90;;;;;;5017314;28;20218;-78
2021/01/09 01:30:54;;;;;;;16.60;11.47;;;1.50;99.90;;;;;;5018358;28;20182;-78
2021/01/09 01:33:19;;;;;;;18.23;11.70;;;1.50;99.90;;;;;;5033200;28;20190;-78
2021/01/09 01:35:47;;;;;;;16.07;11.20;;;1.40;99.90;;;;;;5017587;28;20494;-78
2021/01/09 01:38:12;;;;;;;15.70;10.57;;;1.40;99.90;;;;;;5017391;28;20262;-78
2021/01/09 01:40:38;;;;;;;18.83;11.03;;;1.50;99.90;;;;;;5033664;28;20686;-82
2021/01/09 01:43:09;;;;;;;18.17;11.13;;;1.50;99.90;;;;;;5016617;28;20231;-79
2021/01/09 01:45:34;;;;;;;17.27;10.77;;;1.50;99.90;;;;;;5016443;28;20686;-79
2021/01/09 01:48:00;;;;;;;18.53;11.40;;;1.40;99.90;;;;;;5033215;28;20199;-80
2021/01/09 01:50:25;;;;;;;16.43;10.73;;;1.50;99.90;;;;;;5033915;28;20179;-78
2021/01/09 01:52:51;;;;;;;18.00;10.60;;;1.50;99.90;;;;;;5016533;28;20231;-78
2021/01/09 01:55:16;;;;;;;17.27;10.87;;;1.50;99.90;;;;;;5033482;28;20213;-79
2021/01/09 01:57:42;;;;;;;15.97;10.63;;;1.50;99.90;;;;;;5016742;28;20222;-80
2021/01/09 02:00:08;;;;;;;17.13;11.47;;;1.50;99.90;;;;;;5034180;28;20175;-78
2021/01/09 02:02:34;;;;;;;15.67;10.33;;;1.50;99.90;;;;;;5017081;28;20217;-78
2021/01/09 02:05:01;;;;;;;17.73;11.10;;;1.50;99.90;;;;;;5017237;28;20185;-78
2021/01/09 02:07:28;;;;;;;16.27;10.97;;;1.40;99.90;;;;;;5016548;28;20170;-78
2021/01/09 02:09:56;;;;;;;15.77;10.73;;;1.40;99.90;;;;;;4999259;28;20269;-78
2021/01/09 02:12:25;;;;;;;17.97;11.03;;;1.50;99.90;;;;;;5016499;28;20198;-81
2021/01/09 02:14:52;;;;;;;19.67;11.40;;;1.50;99.90;;;;;;5034245;28;20217;-80
2021/01/09 02:17:18;;;;;;;17.07;11.03;;;1.50;99.90;;;;;;5017765;28;20288;-81
2021/01/09 02:19:44;;;;;;;18.57;11.30;;;1.50;99.90;;;;;;5015803;28;20179;-78
2021/01/09 02:22:14;;;;;;;17.13;11.57;;;1.40;99.90;;;;;;5031621;28;20679;-79
2021/01/09 02:24:40;;;;;;;17.40;10.97;;;1.40;99.90;;;;;;5016143;28;20171;-79
2021/01/09 02:27:06;;;;;;;16.93;10.73;;;1.40;99.90;;;;;;5016075;28;20218;-78
2021/01/09 02:29:33;;;;;;;16.80;11.40;;;1.50;99.90;;;;;;5014894;28;20200;-79
2021/01/09 02:32:03;;;;;;;16.37;10.53;;;1.50;99.90;;;;;;5015852;28;20171;-79
2021/01/09 02:34:41;;;;;;;18.27;10.97;;;1.50;99.90;;;;;;5015436;28;20183;-79
2021/01/09 02:37:10;;;;;;;16.17;10.53;;;1.40;99.90;;;;;;4999441;28;20199;-78
2021/01/09 02:39:36;;;;;;;16.97;10.67;;;1.50;99.90;;;;;;5015390;28;20657;-79
2021/01/09 02:42:02;;;;;;;15.03;10.40;;;1.50;99.90;;;;;;5016346;28;20689;-80
2021/01/09 02:44:28;;;;;;;17.50;11.03;;;1.50;99.90;;;;;;5015280;28;20167;-79
2021/01/09 02:46:53;;;;;;;17.27;11.47;;;1.50;99.90;;;;;;5016038;28;20212;-80
2021/01/09 02:49:19;;;;;;;17.60;10.90;;;1.40;99.90;;;;;;5015394;28;20185;-78
2021/01/09 02:51:44;;;;;;;19.67;11.17;;;1.40;99.90;;;;;;4998347;28;20587;-79
2021/01/09 02:54:10;;;;;;;16.53;10.80;;;1.40;99.90;;;;;;5015076;28;20602;-79
2021/01/09 02:56:35;;;;;;;17.90;11.00;;;1.40;99.90;;;;;;5014276;28;20203;-78
2021/01/09 02:59:01;;;;;;;15.53;10.40;;;1.40;99.90;;;;;;5014651;28;20178;-79
2021/01/09 03:01:28;;;;;;;18.30;11.63;;;1.40;99.90;;;;;;5031532;28;20206;-78
2021/01/09 03:03:54;;;;;;;18.20;11.30;;;1.30;99.90;;;;;;5015106;28;20167;-79
2021/01/09 03:06:19;;;;;;;16.63;10.37;;;1.30;99.90;;;;;;5014463;28;20259;-79
2021/01/09 03:08:45;;;;;;;17.87;11.30;;;1.40;99.90;;;;;;5031197;28;20167;-78
2021/01/09 03:11:10;;;;;;;17.83;11.47;;;1.30;99.90;;;;;;5015417;28;20186;-80
2021/01/09 03:13:36;;;;;;;17.40;11.33;;;1.30;99.90;;;;;;5014729;28;20182;-81
2021/01/09 03:16:02;;;;;;;15.73;10.17;;;1.30;99.90;;;;;;5014447;28;20226;-79
2021/01/09 03:18:27;;;;;;;16.63;10.83;;;1.30;99.90;;;;;;5014949;28;20190;-78
2021/01/09 03:20:53;;;;;;;16.50;10.43;;;1.30;99.90;;;;;;5014756;28;20294;-79
2021/01/09 03:23:18;;;;;;;14.63;10.30;;;1.30;99.90;;;;;;5015120;28;20179;-80
2021/01/09 03:25:44;;;;;;;15.90;10.87;;;1.30;99.90;;;;;;5014182;28;20278;-78
2021/01/09 03:28:09;;;;;;;15.43;10.53;;;1.30;99.90;;;;;;5031317;28;20179;-79
2021/01/09 03:30:35;;;;;;;14.50;9.90;;;1.30;99.90;;;;;;5014516;28;20187;-78
2021/01/09 03:33:00;;;;;;;18.07;10.90;;;1.30;99.90;;;;;;5016193;28;20210;-77
2021/01/09 03:35:26;;;;;;;13.77;9.33;;;1.40;99.90;;;;;;5018586;28;20233;-80
2021/01/09 03:37:52;;;;;;;18.10;11.47;;;1.30;99.90;;;;;;5036391;28;20229;-79
2021/01/09 03:40:18;;;;;;;15.00;11.07;;;1.30;99.90;;;;;;5019338;28;20225;-79
2021/01/09 03:42:44;;;;;;;17.33;10.87;;;1.30;99.90;;;;;;5018259;28;20210;-79
2021/01/09 03:45:09;;;;;;;16.17;10.53;;;1.30;99.90;;;;;;5018065;28;20715;-79
2021/01/09 03:47:35;;;;;;;16.67;10.77;;;1.30;99.90;;;;;;5018408;28;20262;-77
2021/01/09 03:50:01;;;;;;;18.43;10.87;;;1.30;99.90;;;;;;5018383;28;20178;-77
2021/01/09 03:52:26;;;;;;;18.27;10.47;;;1.30;99.90;;;;;;5020584;28;20912;-78
2021/01/09 03:54:52;;;;;;;18.20;10.77;;;1.30;99.90;;;;;;5020493;28;20190;-80
2021/01/09 03:57:17;;;;;;;14.83;10.03;;;1.30;99.90;;;;;;5036672;28;20199;-78
2021/01/09 03:59:43;;;;;;;15.63;10.47;;;1.30;99.90;;;;;;5036646;28;20183;-80
2021/01/09 04:02:09;;;;;;;18.33;10.93;;;1.20;99.90;;;;;;5019686;28;20619;-78
2021/01/09 04:04:34;;;;;;;14.87;10.10;;;1.10;99.90;;;;;;5018298;28;20175;-78
2021/01/09 04:07:00;;;;;;;14.67;10.43;;;1.20;99.90;;;;;;5017668;28;20199;-79
2021/01/09 04:09:25;;;;;;;13.60;9.90;;;1.10;99.90;;;;;;5018146;28;20595;-79
2021/01/09 04:11:51;;;;;;;15.67;10.53;;;1.10;99.90;;;;;;5034311;28;20649;-79
2021/01/09 04:14:16;;;;;;;16.40;10.07;;;1.00;99.90;;;;;;5018011;28;20175;-79
2021/01/09 04:16:42;;;;;;;15.13;10.17;;;1.00;99.90;;;;;;5017878;28;20199;-79
2021/01/09 04:19:07;;;;;;;16.17;9.90;;;0.90;99.90;;;;;;5034908;28;20178;-78
2021/01/09 04:21:43;;;;;;;16.13;9.70;;;0.90;99.90;;;;;;5033703;28;20538;-79
2021/01/09 04:24:08;;;;;;;16.07;10.90;;;0.80;99.90;;;;;;5018768;28;20183;-79
2021/01/09 04:26:34;;;;;;;16.47;10.93;;;0.80;99.90;;;;;;5033518;28;20678;-78
2021/01/09 04:28:59;;;;;;;16.73;11.10;;;0.80;99.90;;;;;;5017444;28;20216;-79
2021/01/09 04:31:26;;;;;;;18.73;11.37;;;0.80;99.90;;;;;;5033979;28;20504;-78
2021/01/09 04:33:51;;;;;;;18.17;11.87;;;0.80;99.90;;;;;;5017531;28;20190;-79
2021/01/09 04:36:17;;;;;;;18.23;11.43;;;0.80;99.90;;;;;;5017137;28;20666;-78
2021/01/09 04:38:42;;;;;;;17.07;11.50;;;0.80;99.90;;;;;;5017279;28;20182;-79
2021/01/09 04:41:08;;;;;;;16.13;11.00;;;0.90;99.90;;;;;;5016838;28;20202;-79
2021/01/09 04:43:33;;;;;;;20.13;11.10;;;0.90;99.90;;;;;;5033955;28;20179;-78
2021/01/09 04:46:00;;;;;;;16.93;11.73;;;0.90;99.90;;;;;;5016219;28;20221;-78
2021/01/09 04:48:25;;;;;;;16.00;10.47;;;0.90;99.90;;;;;;5017423;28;20178;-78
2021/01/09 04:50:51;;;;;;;19.40;11.53;;;0.90;99.90;;;;;;5017310;28;20551;-79
2021/01/09 04:53:20;;;;;;;19.00;11.17;;;1.00;99.90;;;;;;5033598;28;20181;-78
2021/01/09 04:55:46;;;;;;;16.90;11.60;;;0.90;99.90;;;;;;5017208;28;20327;-79
2021/01/09 04:58:12;;;;;;;18.10;11.07;;;0.90;99.90;;;;;;5017411;28;20673;-80
2021/01/09 05:00:37;;;;;;;16.00;10.50;;;0.80;99.90;;;;;;5017136;28;20171;-78
2021/01/09 05:03:03;;;;;;;16.47;10.63;;;0.80;99.90;;;;;;5017137;28;20186;-78
2021/01/09 05:05:29;;;;;;;15.97;10.77;;;0.80;99.90;;;;;;5033976;28;20195;-78
2021/01/09 05:07:54;;;;;;;15.77;10.97;;;0.70;99.90;;;;;;5016156;28;20182;-77
2021/01/09 05:10:20;;;;;;;15.47;10.43;;;0.70;99.90;;;;;;5018584;28;20183;-80
2021/01/09 05:12:45;;;;;;;18.50;11.33;;;0.70;99.90;;;;;;5033803;28;20174;-79
2021/01/09 05:15:11;;;;;;;20.13;11.40;;;0.60;99.90;;;;;;5016408;28;20182;-78
2021/01/09 05:17:40;;;;;;;18.97;11.30;;;0.70;99.90;;;;;;5032689;28;20214;-80
2021/01/09 05:20:07;;;;;;;19.70;12.13;;;0.70;99.90;;;;;;5017141;28;20201;-79
2021/01/09 05:22:37;;;;;;;19.50;11.70;;;0.80;99.90;;;;;;5016721;28;20221;-79
2021/01/09 05:25:03;;;;;;;18.73;12.13;;;0.80;99.90;;;;;;5016825;28;20182;-77
2021/01/09 05:27:29;;;;;;;22.13;11.80;;;0.70;99.90;;;;;;5034466;28;20178;-80
2021/01/09 05:29:55;;;;;;;18.50;11.63;;;0.80;99.90;;;;;;5017255;28;20668;-78
2021/01/09 05:32:23;;;;;;;17.03;11.60;;;0.70;99.90;;;;;;5016483;28;20281;-79
2021/01/09 05:34:50;;;;;;;17.60;11.53;;;0.70;99.90;;;;;;5016160;28;20194;-79
2021/01/09 05:37:21;;;;;;;18.17;11.83;;;0.70;99.90;;;;;;5016157;28;20239;-78
2021/01/09 05:39:50;;;;;;;19.93;11.70;;;0.70;99.90;;;;;;5016440;28;20558;-78
2021/01/09 05:42:16;;;;;;;18.30;11.67;;;0.70;99.90;;;;;;5033034;28;20293;-78
2021/01/09 05:44:41;;;;;;;19.23;11.40;;;0.70;99.90;;;;;;5016319;28;20236;-78
2021/01/09 05:47:07;;;;;;;19.93;12.10;;;0.80;99.90;;;;;;5015757;28;20297;-79
2021/01/09 05:49:33;;;;;;;17.67;11.40;;;0.80;99.90;;;;;;5015848;28;20661;-78
2021/01/09 05:51:58;;;;;;;19.97;11.23;;;0.80;99.90;;;;;;5015752;28;20188;-78
2021/01/09 05:54:34;;;;;;;16.80;11.33;;;0.80;99.90;;;;;;5015763;28;20218;-78
2021/01/09 05:57:00;;;;;;;19.90;11.90;;;0.80;99.90;;;;;;5032218;28;20201;-79
2021/01/09 05:59:33;;;;;;;23.07;12.17;;;0.80;99.90;;;;;;5015437;28;20273;-79
2021/01/09 06:01:59;;;;;;;23.87;12.97;;;0.90;99.90;;;;;;5032205;28;20277;-78
2021/01/09 06:04:31;;;;;;;22.73;12.57;;;0.90;99.90;;;;;;5015532;28;20192;-78
2021/01/09 06:07:10;;;;;;;20.47;12.50;;;0.90;99.90;;;;;;5015860;28;20620;-78
2021/01/09 06:09:57;;;;;;;21.77;13.53;;;0.90;99.90;;;;;;5015680;28;20546;-78
2021/01/09 06:12:23;;;;;;;31.87;14.33;;;0.80;99.90;;;;;;5032085;28;20193;-78
2021/01/09 06:14:49;;;;;;;32.30;13.77;;;0.80;99.90;;;;;;5015461;28;20179;-77
2021/01/09 06:17:14;;;;;;;32.33;15.13;;;0.80;99.90;;;;;;5032123;28;20234;-78
2021/01/09 06:19:40;;;;;;;34.00;13.67;;;0.80;99.90;;;;;;5015176;28;20224;-79
2021/01/09 06:22:06;;;;;;;29.80;14.87;;;0.90;99.90;;;;;;5015365;28;20214;-78
2021/01/09 06:24:31;;;;;;;36.80;14.17;;;0.90;99.90;;;;;;5015275;28;20181;-79
2021/01/09 06:26:57;;;;;;;34.97;15.33;;;0.80;99.90;;;;;;5014584;28;20658;-78
2021/01/09 06:29:26;;;;;;;33.30;14.53;;;1.00;99.90;;;;;;5014812;28;20635;-78
2021/01/09 06:31:57;;;;;;;31.00;14.97;;;0.90;99.90;;;;;;5015178;28;20225;-80
2021/01/09 06:34:27;;;;;;;30.03;14.80;;;0.90;99.90;;;;;;5031745;28;20597;-78
2021/01/09 06:37:03;;;;;;;31.63;14.23;;;0.90;99.90;;;;;;5014969;28;20292;-80
2021/01/09 06:39:36;;;;;;;28.10;14.27;;;0.90;99.90;;;;;;5015054;28;20704;-79
2021/01/09 06:42:05;;;;;;;36.83;14.37;;;1.00;99.90;;;;;;5014637;28;20260;-78
2021/01/09 06:44:30;;;;;;;40.17;14.97;;;1.00;99.90;;;;;;5015126;28;20240;-78
2021/01/09 06:46:56;;;;;;;53.87;15.00;;;1.00;99.90;;;;;;5015161;28;20221;-78
2021/01/09 06:49:22;;;;;;;66.43;14.67;;;0.90;99.90;;;;;;5014995;28;20181;-78
2021/01/09 06:52:01;;;;;;;22.13;12.93;;;0.90;99.90;;;;;;5014613;28;20178;-78
2021/01/09 06:54:39;;;;;;;35.00;13.67;;;0.80;99.90;;;;;;5031144;28;20662;-78
2021/01/09 06:57:04;;;;;;;58.93;14.13;;;0.80;99.90;;;;;;5032888;28;20309;-78
2021/01/09 06:59:31;;;;;;;102.90;17.03;;;0.80;99.90;;;;;;5032210;28;20669;-78
2021/01/09 07:02:12;;;;;;;48.20;14.77;;;0.80;99.90;;;;;;5014770;28;20584;-79
2021/01/09 07:05:05;;;;;;;98.37;15.77;;;0.80;99.90;;;;;;5031304;28;20529;-77
2021/01/09 07:07:38;;;;;;;124.33;16.67;;;0.90;99.90;;;;;;5017474;28;20190;-79
2021/01/09 07:10:20;;;;;;;72.17;16.10;;;0.90;99.90;;;;;;5021035;28;20658;-78
2021/01/09 07:12:55;;;;;;;48.93;14.27;;;0.80;99.90;;;;;;5020883;28;20181;-78
2021/01/09 07:15:21;;;;;;;38.70;15.17;;;0.80;99.90;;;;;;5037699;28;20216;-79
2021/01/09 07:17:51;;;;;;;44.90;15.70;;;0.90;99.90;;;;;;5020781;28;20193;-80
2021/01/09 07:20:19;;;;;;;71.53;15.50;;;1.00;99.90;;;;;;5021066;28;20536;-78
2021/01/09 07:22:46;;;;;;;74.57;17.60;;;0.90;99.90;;;;;;5021314;28;20226;-78
2021/01/09 07:25:11;;;;;;;60.57;16.27;;;0.90;99.90;;;;;;5020873;28;20181;-78
2021/01/09 07:27:44;;;;;;;84.73;16.27;;;0.80;99.90;;;;;;5037187;28;20171;-79
2021/01/09 07:30:19;;;;;;;39.07;14.43;;;0.80;99.90;;;;;;5037322;28;20235;-79
2021/01/09 07:32:51;;;;;;;80.57;16.63;;;0.80;99.90;;;;;;5020812;28;20528;-78
2021/01/09 07:35:25;;;;;;;36.17;14.77;;;0.90;99.90;;;;;;5037094;28;20174;-78
2021/01/09 07:37:52;;;;;;;85.77;17.07;;;0.90;99.90;;;;;;5037277;28;20170;-79
2021/01/09 07:40:19;;;;;;;54.73;15.30;;;0.80;99.90;;;;;;5015841;28;20175;-79
2021/01/09 07:42:44;;;;;;;41.70;16.13;;;0.80;99.90;;;;;;5012141;28;20216;-79
2021/01/09 07:45:11;;;;;;;39.60;14.80;;;0.80;99.90;;;;;;4993410;28;20183;-79
2021/01/09 07:47:39;;;;;;;29.93;14.57;;;0.90;99.90;;;;;;4987522;28;20191;-78
2021/01/09 07:50:06;;;;;;;49.50;14.77;;;0.90;99.90;;;;;;5019022;28;20174;-80
2021/01/09 07:52:33;;;;;;;43.33;15.33;;;0.90;99.90;;;;;;4985265;28;20189;-78
2021/01/09 07:54:58;;;;;;;52.20;14.70;;;0.90;99.90;;;;;;4984789;28;20186;-78
2021/01/09 07:57:27;;;;;;;31.03;14.57;;;0.80;99.90;;;;;;5001864;28;20205;-78
2021/01/09 07:59:56;;;;;;;77.63;17.10;;;1.00;99.90;;;;;;5017672;28;20210;-78
2021/01/09 08:02:46;;;;;;;58.27;16.13;;;1.00;99.90;;;;;;5033655;28;20712;-78
2021/01/09 08:05:21;;;;;;;45.73;15.37;;;1.00;99.90;;;;;;5017084;28;20304;-78
2021/01/09 08:07:49;;;;;;;66.80;15.83;;;1.00;99.90;;;;;;5002104;28;20174;-78
2021/01/09 08:10:28;;;;;;;53.63;14.53;;;1.00;99.90;;;;;;4992615;28;20175;-78
2021/01/09 08:13:06;;;;;;;35.80;13.73;;;0.90;99.90;;;;;;5037331;28;20196;-79
2021/01/09 08:15:33;;;;;;;35.33;15.30;;;1.00;99.90;;;;;;5033065;28;20195;-78
2021/01/09 08:18:03;;;;;;;42.47;13.43;;;1.00;99.90;;;;;;4993217;28;20262;-79
2021/01/09 08:20:28;;;;;;;33.27;13.80;;;1.00;99.90;;;;;;5026280;28;20179;-78
2021/01/09 08:22:56;;;;;;;75.30;15.27;;;1.10;99.90;;;;;;5019442;28;20220;-79
2021/01/09 08:25:25;;;;;;;38.60;14.00;;;1.10;99.90;;;;;;5002435;28;20230;-80
2021/01/09 08:27:55;;;;;;;58.03;13.13;;;1.10;99.90;;;;;;5021413;28;20170;-79
2021/01/09 08:30:31;;;;;;;28.53;13.37;;;1.10;99.90;;;;;;5028685;28;20666;-80
2021/01/09 08:33:07;;;;;;;49.17;13.60;;;1.10;99.90;;;;;;5029724;28;20546;-83
2021/01/09 08:35:36;;;;;;;33.50;13.27;;;1.10;99.90;;;;;;5018782;28;20282;-77
2021/01/09 08:38:02;;;;;;;43.53;13.23;;;1.10;99.90;;;;;;5026745;28;20183;-77
2021/01/09 08:40:27;;;;;;;46.13;14.07;;;1.10;99.90;;;;;;5015544;28;20186;-78
2021/01/09 08:43:06;;;;;;;70.10;14.17;;;1.20;99.90;;;;;;5001668;28;20762;-79
2021/01/09 08:45:47;;;;;;;35.23;13.53;;;1.20;99.90;;;;;;5000801;28;20213;-77
2021/01/09 08:48:19;;;;;;;39.40;13.13;;;1.20;99.90;;;;;;5029671;28;20201;-78
2021/01/09 08:50:46;;;;;;;30.70;13.27;;;1.20;99.90;;;;;;5034076;28;20224;-79
2021/01/09 08:53:12;;;;;;;29.13;12.90;;;1.20;99.90;;;;;;5016360;28;20250;-77
2021/01/09 08:55:38;;;;;;;33.73;12.17;;;1.30;99.90;;;;;;5025233;28;20215;-77
2021/01/09 08:58:07;;;;;;;21.13;10.93;;;1.40;99.90;;;;;;5033971;28;20549;-77
2021/01/09 09:00:32;;;;;;;26.67;12.30;;;1.30;99.90;;;;;;5023060;28;20178;-78
2021/01/09 09:02:58;;;;;;;22.53;10.70;;;1.20;99.90;;;;;;5010050;28;20199;-77
2021/01/09 09:05:25;;;;;;;30.13;11.47;;;1.30;99.90;;;;;;5013335;28;20690;-81
2021/01/09 09:07:51;;;;;;;22.40;10.80;;;1.30;99.90;;;;;;5011460;28;20186;-81
2021/01/09 09:10:16;;;;;;;17.83;11.00;;;1.30;99.90;;;;;;5035808;28;20171;-82
2021/01/09 09:12:42;;;;;;;26.50;11.67;;;1.40;99.90;;;;;;5029287;28;20227;-78
2021/01/09 09:15:10;;;;;;;22.00;11.27;;;1.40;99.90;;;;;;5001929;28;20707;-83
2021/01/09 09:17:37;;;;;;;22.57;12.27;;;1.40;99.90;;;;;;5021296;28;20593;-79
2021/01/09 09:20:03;;;;;;;30.97;12.10;;;1.50;99.90;;;;;;5036202;28;20175;-79
2021/01/09 09:22:29;;;;;;;19.33;11.13;;;1.40;99.90;;;;;;5034386;28;20201;-78
2021/01/09 09:24:56;;;;;;;25.17;11.80;;;1.40;99.90;;;;;;5033028;28;20225;-78
2021/01/09 09:27:31;;;;;;;20.73;11.90;;;1.40;99.90;;;;;;5016762;28;20245;-79
2021/01/09 09:30:13;;;;;;;24.00;12.53;;;1.40;99.90;;;;;;5035167;28;20155;-78
2021/01/09 09:32:43;;;;;;;20.13;11.20;;;1.50;99.90;;;;;;5015940;28;20179;-77
2021/01/09 09:35:25;;;;;;;18.30;11.80;;;1.40;99.90;;;;;;5012263;28;20253;-77
2021/01/09 09:37:51;;;;;;;19.87;12.10;;;1.50;99.90;;;;;;4996652;28;20188;-78
2021/01/09 09:40:35;;;;;;;25.60;13.17;;;1.60;99.90;;;;;;5014714;28;20192;-80
2021/01/09 09:43:19;;;;;;;32.17;13.13;;;1.60;99.90;;;;;;5018436;28;20210;-80
2021/01/09 09:46:11;;;;;;;35.13;13.57;;;1.70;99.90;;;;;;5018044;28;20222;-80
2021/01/09 09:48:39;;;;;;;36.93;13.90;;;1.70;99.90;;;;;;5034443;28;20305;-78
2021/01/09 09:51:05;;;;;;;36.30;13.63;;;1.80;99.90;;;;;;5027032;28;20194;-74
2021/01/09 09:53:35;;;;;;;30.20;12.97;;;1.60;99.90;;;;;;5025978;28;20190;-73
2021/01/09 09:56:21;;;;;;;28.87;12.93;;;1.80;99.90;;;;;;5024941;28;20290;-77
2021/01/09 09:58:47;;;;;;;27.50;13.23;;;1.80;99.90;;;;;;4999432;28;20183;-82
2021/01/09 10:01:19;;;;;;;24.00;12.20;;;1.80;99.90;;;;;;5021756;28;20235;-79
2021/01/09 10:03:45;;;;;;;22.27;12.10;;;2.00;99.90;;;;;;5000159;28;20616;-78
2021/01/09 10:06:11;;;;;;;23.03;11.50;;;2.00;99.90;;;;;;5009972;28;20203;-80
2021/01/09 10:08:36;;;;;;;35.17;20.43;;;2.00;99.90;;;;;;5017909;28;20174;-81
2021/01/09 10:11:02;;;;;;;52.57;32.43;;;1.90;99.90;;;;;;5018822;28;20183;-86
2021/01/09 10:13:28;;;;;;;32.10;25.27;;;2.00;99.90;;;;;;5021296;28;20693;-79
2021/01/09 10:15:57;;;;;;;21.07;15.40;;;2.00;99.90;;;;;;5019950;28;20226;-82
2021/01/09 10:18:26;;;;;;;15.57;11.53;;;2.00;99.90;;;;;;5003646;28;20650;-83
2021/01/09 10:20:52;;;;;;;16.43;12.40;;;2.10;99.90;;;;;;5019913;28;20182;-81
2021/01/09 10:23:17;;;;;;;20.63;13.93;;;2.20;99.90;;;;;;5018968;28;20236;-81
2021/01/09 10:25:43;;;;;;;21.73;17.63;;;2.30;99.90;;;;;;5000832;28;20567;-82
2021/01/09 10:28:08;;;;;;;20.93;15.90;;;2.30;99.90;;;;;;5010195;28;21660;-80
2021/01/09 10:30:34;;;;;;;16.83;12.23;;;2.20;99.90;;;;;;5024785;28;20179;-77
2021/01/09 10:33:00;;;;;;;32.97;24.67;;;2.40;99.90;;;;;;4982088;28;20193;-78
2021/01/09 10:35:25;;;;;;;32.07;23.03;;;2.40;99.90;;;;;;5011957;28;20202;-78
2021/01/09 10:37:51;;;;;;;47.20;31.77;;;2.30;99.90;;;;;;4995919;28;20183;-76
2021/01/09 10:40:16;;;;;;;28.43;18.33;;;2.30;99.90;;;;;;4999871;28;20190;-81
2021/01/09 10:42:42;;;;;;;20.50;14.27;;;2.40;99.90;;;;;;4988931;28;20220;-81
2021/01/09 10:45:08;;;;;;;59.23;42.17;;;2.40;99.90;;;;;;5033999;28;20593;-79
2021/01/09 10:47:34;;;;;;;91.00;56.50;;;2.40;99.90;;;;;;5016492;28;20626;-83
2021/01/09 10:49:59;;;;;;;88.93;57.43;;;2.40;99.90;;;;;;5019318;28;20213;-82
2021/01/09 10:52:25;;;;;;;57.50;40.43;;;2.50;99.90;;;;;;5008183;28;20172;-81
2021/01/09 10:54:51;;;;;;;20.00;14.87;;;2.50;99.90;;;;;;5019455;28;20179;-81
2021/01/09 10:57:16;;;;;;;55.63;36.97;;;2.50;99.90;;;;;;5035356;28;20226;-80
2021/01/09 10:59:42;;;;;;;27.50;20.67;;;2.50;99.90;;;;;;5019817;28;20273;-80
2021/01/09 11:02:08;;;;;;;36.77;27.23;;;2.50;99.90;;;;;;5021206;28;20202;-80
2021/01/09 11:04:33;;;;;;;24.80;17.20;;;2.50;99.90;;;;;;5012206;28;20548;-80
2021/01/09 11:06:59;;;;;;;22.03;15.13;;;2.50;99.90;;;;;;5004080;28;20195;-83
2021/01/09 11:09:25;;;;;;;17.67;11.97;;;2.70;99.90;;;;;;4998881;28;20175;-80
2021/01/09 11:11:51;;;;;;;24.97;17.40;;;2.40;99.90;;;;;;5027254;28;20186;-79
2021/01/09 11:14:16;;;;;;;19.40;13.47;;;2.50;99.90;;;;;;5009675;28;20548;-80
2021/01/09 11:16:42;;;;;;;36.10;25.20;;;2.60;99.90;;;;;;5018546;28;20332;-80
2021/01/09 11:19:08;;;;;;;13.40;10.90;;;2.70;99.90;;;;;;5017578;28;20656;-77
2021/01/09 11:21:34;;;;;;;14.20;10.63;;;2.60;99.90;;;;;;5031500;28;20210;-81
2021/01/09 11:24:00;;;;;;;19.83;14.90;;;2.60;99.90;;;;;;5030988;28;20175;-80
2021/01/09 11:26:26;;;;;;;17.23;11.47;;;2.80;99.90;;;;;;5022039;28;20572;-80
2021/01/09 11:28:52;;;;;;;12.50;9.53;;;2.60;99.90;;;;;;4995438;28;20179;-79
2021/01/09 11:31:18;;;;;;;93.97;65.47;;;2.60;99.90;;;;;;5029204;28;20250;-81
2021/01/09 11:33:44;;;;;;;32.23;21.40;;;2.50;99.90;;;;;;5013060;28;20702;-81
2021/01/09 11:36:10;;;;;;;40.47;32.67;;;2.70;99.90;;;;;;5000693;28;20202;-80
2021/01/09 11:38:35;;;;;;;68.80;48.63;;;2.70;99.90;;;;;;5032254;28;20465;-80
2021/01/09 11:41:02;;;;;;;53.23;35.23;;;2.60;99.90;;;;;;5004888;28;20179;-79
2021/01/09 11:43:28;;;;;;;28.37;18.30;;;2.50;99.90;;;;;;5013478;28;20219;-80
2021/01/09 11:45:53;;;;;;;29.20;17.97;;;2.60;99.90;;;;;;4996929;28;20626;-77
2021/01/09 11:48:19;;;;;;;64.43;45.33;;;2.70;99.90;;;;;;5031052;28;20179;-78
2021/01/09 11:50:44;;;;;;;36.87;27.07;;;2.70;99.90;;;;;;5006982;28;20194;-77
2021/01/09 11:53:10;;;;;;;15.70;11.50;;;2.80;99.90;;;;;;5029721;28;20179;-76
2021/01/09 11:55:36;;;;;;;17.93;12.67;;;2.80;99.90;;;;;;5033018;28;20198;-77
2021/01/09 11:58:01;;;;;;;24.97;17.83;;;2.90;99.90;;;;;;5030220;28;20207;-75
2021/01/09 12:00:27;;;;;;;39.17;25.60;;;2.90;99.90;;;;;;5028570;28;20190;-75
2021/01/09 12:02:52;;;;;;;126.03;72.27;;;2.80;99.90;;;;;;5023757;28;20276;-76
2021/01/09 12:05:18;;;;;;;28.00;17.77;;;3.00;99.90;;;;;;5007600;28;20187;-76
2021/01/09 12:07:43;;;;;;;40.73;20.23;;;3.00;99.90;;;;;;5013837;28;20182;-80
2021/01/09 12:10:09;;;;;;;77.47;57.37;;;3.10;99.90;;;;;;4998648;28;20168;-78
2021/01/09 12:12:35;;;;;;;118.90;84.40;;;3.20;99.90;;;;;;5022889;28;20167;-78
2021/01/09 12:15:01;;;;;;;127.17;84.93;;;3.10;99.90;;;;;;5022648;28;20185;-74
2021/01/09 12:17:27;;;;;;;57.00;40.70;;;3.20;99.90;;;;;;5013878;28;20171;-78
2021/01/09 12:19:52;;;;;;;55.67;37.43;;;3.30;99.90;;;;;;5030132;28;20189;-81
2021/01/09 12:22:18;;;;;;;23.20;15.87;;;3.40;99.90;;;;;;5018992;28;20277;-79
2021/01/09 12:24:44;;;;;;;26.90;19.37;;;3.40;99.90;;;;;;5033648;28;20256;-79
2021/01/09 12:27:09;;;;;;;15.50;12.03;;;3.50;99.90;;;;;;5004343;28;20199;-76
2021/01/09 12:29:35;;;;;;;18.93;13.17;;;3.40;99.90;;;;;;5028938;28;20561;-75
2021/01/09 12:32:01;;;;;;;21.57;17.73;;;3.40;99.90;;;;;;5030290;28;20831;-76
2021/01/09 12:34:26;;;;;;;12.17;8.17;;;3.50;99.90;;;;;;5033588;28;20183;-76
2021/01/09 12:36:52;;;;;;;11.73;9.40;;;3.30;99.90;;;;;;5003767;28;20300;-78
2021/01/09 12:39:18;;;;;;;16.50;12.87;;;3.20;99.90;;;;;;5033935;28;20736;-80